La rose des vents
Donnes mto: Semaine 04/06/07 - 10/06/07 (S 23)
Date Horaire Temp. E. Hum. E. P.atmo. Pluie Vent 1mn Direction Ensoleilleme Ev.Tr. Solaire P. de rose Temp au vent Rafales
04/06/2007 00:00 18,4 C 61 % 1014,1 hPa 0,0 l/m 6,0 km/h (2 Bft) O 0,00 h 0,051 mm 0 W/m 10,6 C 18,4 C 9,6 km/h (2 Bft)
04/06/2007 01:00 18,6 C 58 % 1014,1 hPa 0,0 l/m 1,8 km/h (1 Bft) NO 0,00 h 0,051 mm 0 W/m 10,3 C 18,6 C 2,9 km/h (1 Bft)
04/06/2007 02:00 18,5 C 59 % 1014,2 hPa 0,0 l/m 1,6 km/h (1 Bft) NO 0,00 h 0,051 mm 0 W/m 10,2 C 18,5 C 3,0 km/h (1 Bft)
04/06/2007 03:00 18,3 C 58 % 1013,7 hPa 0,0 l/m 2,9 km/h (1 Bft) O-NO 0,00 h 0,051 mm 0 W/m 9,9 C 18,3 C 5,3 km/h (1 Bft)
04/06/2007 04:00 17,5 C 62 % 1013,8 hPa 0,0 l/m 4,7 km/h (1 Bft) N-NE 0,00 h 0,051 mm 0 W/m 10,1 C 17,5 C 7,8 km/h (2 Bft)
04/06/2007 05:00 16,9 C 64 % 1014,3 hPa 0,0 l/m 4,5 km/h (1 Bft) N-NE 0,00 h 0,051 mm 5 W/m 10,1 C 16,9 C 7,9 km/h (2 Bft)
04/06/2007 06:00 16,3 C 67 % 1014,5 hPa 0,0 l/m 1,8 km/h (1 Bft) N-NO 0,00 h 0,025 mm 23 W/m 10,2 C 16,3 C 3,6 km/h (1 Bft)
04/06/2007 07:00 17,2 C 67 % 1014,8 hPa 0,0 l/m 1,8 km/h (1 Bft) O-NO 0,05 h 0,025 mm 83 W/m 10,9 C 17,2 C 3,7 km/h (1 Bft)
04/06/2007 08:00 19,5 C 62 % 1015,2 hPa 0,0 l/m 1,2 km/h (1 Bft) NO 0,60 h 0,051 mm 364 W/m 12,0 C 19,5 C 2,6 km/h (1 Bft)
04/06/2007 09:00 23,2 C 53 % 1015,3 hPa 0,0 l/m 5,9 km/h (2 Bft) E 1,00 h 0,229 mm 576 W/m 13,1 C 23,2 C 9,6 km/h (2 Bft)
04/06/2007 10:00 23,2 C 54 % 1015,4 hPa 0,0 l/m 7,5 km/h (2 Bft) S 0,82 h 0,406 mm 591 W/m 13,2 C 23,2 C 12,0 km/h (2 Bft)
04/06/2007 11:00 23,6 C 55 % 1015,4 hPa 0,0 l/m 8,7 km/h (2 Bft) E 0,83 h 0,406 mm 664 W/m 14,1 C 23,6 C 13,3 km/h (3 Bft)
04/06/2007 12:00 24,4 C 54 % 1015,2 hPa 0,0 l/m 11,2 km/h (2 Bft) E 1,00 h 0,483 mm 861 W/m 14,4 C 24,4 C 15,9 km/h (3 Bft)
04/06/2007 13:00 25,1 C 52 % 1014,9 hPa 0,0 l/m 11,6 km/h (2 Bft) E 1,00 h 0,610 mm 922 W/m 14,6 C 25,1 C 17,5 km/h (3 Bft)
04/06/2007 14:00 25,0 C 53 % 1014,7 hPa 0,0 l/m 8,3 km/h (2 Bft) E 1,00 h 0,660 mm 884 W/m 14,7 C 25,0 C 12,9 km/h (3 Bft)
04/06/2007 15:00 24,9 C 54 % 1014,5 hPa 0,0 l/m 7,4 km/h (2 Bft) E 1,00 h 0,610 mm 803 W/m 14,9 C 24,9 C 11,6 km/h (2 Bft)
04/06/2007 16:00 26,1 C 49 % 1013,8 hPa 0,0 l/m 7,5 km/h (2 Bft) E 1,00 h 0,559 mm 681 W/m 14,5 C 26,1 C 12,4 km/h (3 Bft)
04/06/2007 17:00 25,1 C 48 % 1013,6 hPa 0,0 l/m 5,8 km/h (2 Bft) S-SE 1,00 h 0,508 mm 506 W/m 13,5 C 25,1 C 9,5 km/h (2 Bft)
04/06/2007 18:00 24,5 C 48 % 1013,2 hPa 0,0 l/m 6,5 km/h (2 Bft) S 0,75 h 0,381 mm 292 W/m 12,7 C 24,5 C 10,3 km/h (2 Bft)
04/06/2007 19:00 24,2 C 46 % 1013,1 hPa 0,0 l/m 2,5 km/h (1 Bft) S-SE 0,93 h 0,229 mm 165 W/m 11,8 C 24,2 C 4,5 km/h (1 Bft)
04/06/2007 20:00 22,3 C 58 % 1012,7 hPa 0,0 l/m 0,7 km/h (0 Bft) E-NE 0,05 h 0,127 mm 31 W/m 13,7 C 22,3 C 1,6 km/h (1 Bft)
04/06/2007 21:00 20,1 C 66 % 1013,0 hPa 0,0 l/m 1,0 km/h (0 Bft) E-NE 0,00 h 0,025 mm 7 W/m 13,5 C 20,1 C 1,7 km/h (1 Bft)
04/06/2007 22:00 19,2 C 70 % 1013,3 hPa 0,0 l/m 1,9 km/h (1 Bft) NO 0,00 h 0,025 mm 0 W/m 13,6 C 19,2 C 4,2 km/h (1 Bft)
04/06/2007 23:00 19,0 C 70 % 1013,5 hPa 0,0 l/m 0,5 km/h (0 Bft) NO 0,00 h 0,051 mm 0 W/m 13,5 C 19,0 C 1,3 km/h (1 Bft)
05/06/2007 00:00 18,7 C 70 % 1012,9 hPa 0,0 l/m 4,9 km/h (1 Bft) O 0,00 h 0,025 mm 0 W/m 13,1 C 18,7 C 6,9 km/h (2 Bft)
05/06/2007 01:00 18,9 C 65 % 1012,6 hPa 0,0 l/m 5,7 km/h (1 Bft) O-NO 0,00 h 0,051 mm 0 W/m 12,3 C 18,9 C 7,7 km/h (2 Bft)
05/06/2007 02:00 17,9 C 73 % 1012,9 hPa 0,2 l/m 2,8 km/h (1 Bft) NE 0,00 h 0,051 mm 0 W/m 13,0 C 17,9 C 4,9 km/h (1 Bft)
05/06/2007 03:00 16,8 C 83 % 1012,7 hPa 0,2 l/m 3,5 km/h (1 Bft) NO 0,00 h 0,025 mm 0 W/m 13,8 C 16,8 C 6,0 km/h (2 Bft)
05/06/2007 04:00 16,7 C 83 % 1012,2 hPa 0,2 l/m 5,0 km/h (1 Bft) NO 0,00 h 0,025 mm 0 W/m 13,9 C 16,7 C 7,8 km/h (2 Bft)
05/06/2007 05:00 16,4 C 86 % 1011,6 hPa 0,0 l/m 4,7 km/h (1 Bft) NE 0,00 h 0,025 mm 9 W/m 14,1 C 16,4 C 7,5 km/h (2 Bft)
05/06/2007 06:00 16,8 C 84 % 1011,2 hPa 0,0 l/m 9,4 km/h (2 Bft) O-NO 0,35 h 0,025 mm 46 W/m 14,0 C 16,8 C 13,4 km/h (3 Bft)
05/06/2007 07:00 20,0 C 71 % 1010,6 hPa 0,0 l/m 2,8 km/h (1 Bft) O-NO 0,50 h 0,051 mm 171 W/m 14,6 C 20,0 C 5,1 km/h (1 Bft)
05/06/2007 08:00 20,7 C 71 % 1011,0 hPa 0,0 l/m 6,4 km/h (2 Bft) SO 0,27 h 0,127 mm 221 W/m 15,4 C 20,7 C 8,5 km/h (2 Bft)
05/06/2007 09:00 22,5 C 68 % 1011,2 hPa 0,2 l/m 1,2 km/h (1 Bft) SE 0,17 h 0,152 mm 288 W/m 16,2 C 22,5 C 2,6 km/h (1 Bft)
05/06/2007 10:00 24,3 C 61 % 1011,2 hPa 0,0 l/m 5,5 km/h (1 Bft) E 0,98 h 0,178 mm 569 W/m 16,4 C 24,3 C 8,9 km/h (2 Bft)
05/06/2007 11:00 25,4 C 58 % 1011,0 hPa 0,0 l/m 10,4 km/h (2 Bft) E 1,00 h 0,406 mm 773 W/m 16,4 C 25,4 C 14,8 km/h (3 Bft)
05/06/2007 12:00 24,2 C 58 % 1011,4 hPa 0,0 l/m 11,8 km/h (2 Bft) E 1,00 h 0,559 mm 755 W/m 15,4 C 24,2 C 17,5 km/h (3 Bft)
05/06/2007 13:00 23,6 C 58 % 1011,1 hPa 0,0 l/m 4,7 km/h (1 Bft) E 0,13 h 0,533 mm 387 W/m 14,9 C 23,6 C 7,3 km/h (2 Bft)
05/06/2007 14:00 23,3 C 60 % 1010,9 hPa 0,0 l/m 2,2 km/h (1 Bft) E-SE 0,23 h 0,279 mm 441 W/m 15,1 C 23,3 C 4,4 km/h (1 Bft)
05/06/2007 15:00 22,8 C 65 % 1010,6 hPa 0,0 l/m 3,5 km/h (1 Bft) E 0,00 h 0,279 mm 239 W/m 15,9 C 22,8 C 5,7 km/h (1 Bft)
05/06/2007 16:00 23,1 C 63 % 1010,2 hPa 0,0 l/m 1,3 km/h (1 Bft) SE 0,43 h 0,178 mm 426 W/m 15,6 C 23,1 C 3,4 km/h (1 Bft)
05/06/2007 17:00 23,6 C 60 % 1009,9 hPa 0,0 l/m 1,6 km/h (1 Bft) E-NE 0,00 h 0,279 mm 205 W/m 15,3 C 23,6 C 3,1 km/h (1 Bft)
05/06/2007 18:00 22,4 C 68 % 1009,8 hPa 0,0 l/m 2,4 km/h (1 Bft) E 0,00 h 0,152 mm 95 W/m 16,1 C 22,4 C 4,4 km/h (1 Bft)
05/06/2007 19:00 20,1 C 83 % 1009,7 hPa 0,4 l/m 3,0 km/h (1 Bft) O 0,00 h 0,076 mm 33 W/m 17,2 C 20,1 C 4,4 km/h (1 Bft)
05/06/2007 20:00 19,0 C 90 % 1009,1 hPa 0,0 l/m 1,6 km/h (1 Bft) E-NE 0,00 h 0,025 mm 15 W/m 17,3 C 19,0 C 2,7 km/h (1 Bft)
05/06/2007 21:00 18,3 C 92 % 1009,3 hPa 0,0 l/m 4,8 km/h (1 Bft) SO 0,00 h 0,025 mm 0 W/m 16,9 C 18,3 C 6,3 km/h (2 Bft)
05/06/2007 22:00 17,6 C 93 % 1009,7 hPa 0,0 l/m 2,3 km/h (1 Bft) O-SO 0,00 h 0,025 mm 0 W/m 16,4 C 17,6 C 3,4 km/h (1 Bft)
05/06/2007 23:00 17,2 C 92 % 1010,0 hPa 0,0 l/m 1,4 km/h (1 Bft) O-SO 0,00 h 0,025 mm 0 W/m 16,0 C 17,2 C 2,5 km/h (1 Bft)
06/06/2007 00:00 16,3 C 92 % 1010,0 hPa 0,0 l/m 1,8 km/h (1 Bft) NO 0,00 h 0,025 mm 0 W/m 15,1 C 16,3 C 3,3 km/h (1 Bft)
06/06/2007 01:00 16,1 C 92 % 1009,9 hPa 0,0 l/m 1,7 km/h (1 Bft) N-NO 0,00 h 0,025 mm 0 W/m 14,8 C 16,1 C 3,3 km/h (1 Bft)
06/06/2007 02:00 17,0 C 89 % 1009,4 hPa 0,0 l/m 2,8 km/h (1 Bft) O-NO 0,00 h 0,025 mm 0 W/m 15,2 C 17,0 C 5,0 km/h (1 Bft)
06/06/2007 03:00 17,6 C 78 % 1009,2 hPa 0,0 l/m 1,8 km/h (1 Bft) NO 0,00 h 0,025 mm 0 W/m 13,8 C 17,6 C 3,9 km/h (1 Bft)
06/06/2007 04:00 17,4 C 79 % 1009,2 hPa 0,2 l/m 0,7 km/h (0 Bft) N-NO 0,00 h 0,025 mm 0 W/m 13,6 C 17,4 C 2,2 km/h (1 Bft)
06/06/2007 05:00 17,2 C 81 % 1009,1 hPa 0,0 l/m 1,7 km/h (1 Bft) NO 0,00 h 0,025 mm 0 W/m 13,9 C 17,2 C 3,5 km/h (1 Bft)
06/06/2007 06:00 17,2 C 81 % 1009,3 hPa 0,0 l/m 2,1 km/h (1 Bft) O-NO 0,00 h 0,000 mm 12 W/m 14,0 C 17,2 C 3,7 km/h (1 Bft)
06/06/2007 07:00 17,8 C 80 % 1009,6 hPa 0,0 l/m 0,8 km/h (0 Bft) S-SE 0,00 h 0,025 mm 84 W/m 14,4 C 17,8 C 1,8 km/h (1 Bft)
06/06/2007 08:00 19,6 C 76 % 1009,5 hPa 0,0 l/m 0,4 km/h (0 Bft) E 0,52 h 0,051 mm 320 W/m 15,2 C 19,6 C 1,2 km/h (1 Bft)
06/06/2007 09:00 22,6 C 66 % 1009,5 hPa 0,0 l/m 2,6 km/h (1 Bft) E 1,00 h 0,203 mm 510 W/m 16,0 C 22,6 C 4,7 km/h (1 Bft)
06/06/2007 10:00 23,7 C 59 % 1009,4 hPa 0,0 l/m 3,7 km/h (1 Bft) S 0,92 h 0,330 mm 584 W/m 15,2 C 23,7 C 7,0 km/h (2 Bft)
06/06/2007 11:00 25,3 C 56 % 1009,3 hPa 0,0 l/m 6,3 km/h (2 Bft) E 0,92 h 0,381 mm 763 W/m 15,9 C 25,3 C 10,6 km/h (2 Bft)
06/06/2007 12:00 25,9 C 53 % 1008,9 hPa 0,0 l/m 9,0 km/h (2 Bft) S 0,83 h 0,533 mm 830 W/m 15,5 C 25,9 C 14,8 km/h (3 Bft)
06/06/2007 13:00 26,3 C 47 % 1008,9 hPa 0,0 l/m 9,0 km/h (2 Bft) E 0,93 h 0,584 mm 907 W/m 14,2 C 26,3 C 16,0 km/h (3 Bft)
06/06/2007 14:00 26,0 C 48 % 1009,2 hPa 0,0 l/m 9,4 km/h (2 Bft) E 0,87 h 0,660 mm 775 W/m 14,0 C 26,0 C 15,3 km/h (3 Bft)
06/06/2007 15:00 25,1 C 52 % 1008,9 hPa 0,0 l/m 11,4 km/h (2 Bft) S 0,92 h 0,584 mm 764 W/m 14,4 C 25,1 C 17,4 km/h (3 Bft)
06/06/2007 16:00 25,2 C 52 % 1008,8 hPa 0,0 l/m 8,3 km/h (2 Bft) S 0,88 h 0,559 mm 641 W/m 14,5 C 25,2 C 13,2 km/h (3 Bft)
06/06/2007 17:00 23,8 C 56 % 1009,0 hPa 0,2 l/m 7,7 km/h (2 Bft) E 0,10 h 0,457 mm 226 W/m 14,6 C 23,8 C 12,0 km/h (2 Bft)
06/06/2007 18:00 19,3 C 84 % 1009,8 hPa 4,2 l/m 5,5 km/h (1 Bft) N 0,00 h 0,203 mm 26 W/m 16,3 C 19,3 C 8,9 km/h (2 Bft)
06/06/2007 19:00 17,4 C 92 % 1010,2 hPa 1,4 l/m 7,9 km/h (2 Bft) O-NO 0,00 h 0,025 mm 42 W/m 16,2 C 17,4 C 11,4 km/h (2 Bft)
06/06/2007 20:00 17,4 C 92 % 1010,2 hPa 0,0 l/m 7,0 km/h (2 Bft) O-NO 0,00 h 0,051 mm 13 W/m 16,1 C 17,4 C 10,7 km/h (2 Bft)
06/06/2007 21:00 16,8 C 93 % 1010,3 hPa 0,0 l/m 6,4 km/h (2 Bft) NO 0,00 h 0,025 mm 0 W/m 15,7 C 16,8 C 9,8 km/h (2 Bft)
06/06/2007 22:00 16,7 C 91 % 1010,5 hPa 0,0 l/m 5,1 km/h (1 Bft) O-NO 0,00 h 0,025 mm 0 W/m 15,3 C 16,7 C 8,4 km/h (2 Bft)
06/06/2007 23:00 16,6 C 90 % 1010,5 hPa 0,8 l/m 5,3 km/h (1 Bft) O-NO 0,00 h 0,025 mm 0 W/m 15,0 C 16,6 C 8,3 km/h (2 Bft)
07/06/2007 00:00 16,3 C 91 % 1010,5 hPa 0,4 l/m 3,0 km/h (1 Bft) O-NO 0,00 h 0,025 mm 0 W/m 14,8 C 16,3 C 5,3 km/h (1 Bft)
07/06/2007 01:00 16,1 C 91 % 1010,5 hPa 0,0 l/m 1,1 km/h (0 Bft) O-NO 0,00 h 0,025 mm 0 W/m 14,6 C 16,1 C 2,5 km/h (1 Bft)
07/06/2007 02:00 15,9 C 91 % 1010,6 hPa 0,2 l/m 4,3 km/h (1 Bft) NO 0,00 h 0,025 mm 0 W/m 14,5 C 15,9 C 6,6 km/h (2 Bft)
07/06/2007 03:00 15,7 C 92 % 1010,6 hPa 0,8 l/m 1,1 km/h (1 Bft) NO 0,00 h 0,025 mm 0 W/m 14,3 C 15,7 C 2,2 km/h (1 Bft)
07/06/2007 04:00 15,6 C 93 % 1010,6 hPa 0,0 l/m 0,0 km/h (0 Bft) N 0,00 h 0,025 mm 0 W/m 14,4 C 15,6 C 0,1 km/h (0 Bft)
07/06/2007 05:00 15,3 C 93 % 1010,6 hPa 0,4 l/m 3,6 km/h (1 Bft) NO 0,00 h 0,000 mm 0 W/m 14,1 C 15,3 C 5,3 km/h (1 Bft)
07/06/2007 06:00 15,2 C 94 % 1010,8 hPa 0,2 l/m 2,6 km/h (1 Bft) O-NO 0,00 h 0,000 mm 20 W/m 14,2 C 15,2 C 4,1 km/h (1 Bft)
07/06/2007 07:00 15,4 C 94 % 1010,9 hPa 0,0 l/m 4,8 km/h (1 Bft) NO 0,00 h 0,025 mm 70 W/m 14,4 C 15,4 C 7,3 km/h (2 Bft)
07/06/2007 08:00 16,5 C 92 % 1011,1 hPa 0,0 l/m 1,0 km/h (0 Bft) NO 0,00 h 0,051 mm 136 W/m 15,2 C 16,5 C 2,1 km/h (1 Bft)
07/06/2007 09:00 18,0 C 87 % 1011,5 hPa 0,0 l/m 0,5 km/h (0 Bft) E 0,07 h 0,076 mm 263 W/m 15,9 C 18,0 C 1,1 km/h (1 Bft)
07/06/2007 10:00 20,6 C 79 % 1011,7 hPa 0,0 l/m 4,1 km/h (1 Bft) E-NE 0,78 h 0,152 mm 623 W/m 16,7 C 20,6 C 7,0 km/h (2 Bft)
07/06/2007 11:00 21,8 C 77 % 1011,7 hPa 0,0 l/m 9,2 km/h (2 Bft) E 0,87 h 0,381 mm 755 W/m 17,5 C 21,8 C 13,6 km/h (3 Bft)
07/06/2007 12:00 21,3 C 77 % 1012,1 hPa 0,0 l/m 8,4 km/h (2 Bft) E 1,00 h 0,483 mm 791 W/m 17,0 C 21,3 C 14,3 km/h (3 Bft)
07/06/2007 13:00 21,9 C 72 % 1012,3 hPa 0,0 l/m 8,4 km/h (2 Bft) E 0,95 h 0,508 mm 813 W/m 16,6 C 21,9 C 15,3 km/h (3 Bft)
07/06/2007 14:00 22,1 C 72 % 1012,3 hPa 0,0 l/m 7,7 km/h (2 Bft) E 0,97 h 0,508 mm 897 W/m 16,8 C 22,1 C 13,8 km/h (3 Bft)
07/06/2007 15:00 21,5 C 73 % 1012,3 hPa 0,0 l/m 6,1 km/h (2 Bft) E-SE 0,30 h 0,584 mm 500 W/m 16,3 C 21,5 C 11,1 km/h (2 Bft)
07/06/2007 16:00 21,1 C 70 % 1012,4 hPa 0,0 l/m 5,8 km/h (2 Bft) E 0,53 h 0,330 mm 392 W/m 15,4 C 21,1 C 8,8 km/h (2 Bft)
07/06/2007 17:00 21,6 C 68 % 1012,6 hPa 0,0 l/m 6,8 km/h (2 Bft) E 0,70 h 0,279 mm 400 W/m 15,4 C 21,6 C 10,0 km/h (2 Bft)
07/06/2007 18:00 20,7 C 71 % 1012,7 hPa 0,0 l/m 2,8 km/h (1 Bft) E 0,15 h 0,279 mm 214 W/m 15,3 C 20,7 C 4,8 km/h (1 Bft)
07/06/2007 19:00 20,2 C 74 % 1012,8 hPa 0,0 l/m 2,4 km/h (1 Bft) E-NE 0,00 h 0,152 mm 81 W/m 15,5 C 20,2 C 4,1 km/h (1 Bft)
07/06/2007 20:00 19,4 C 77 % 1012,9 hPa 0,0 l/m 0,0 km/h (0 Bft) N 0,00 h 0,051 mm 34 W/m 15,2 C 19,4 C 0,1 km/h (0 Bft)
07/06/2007 21:00 18,4 C 82 % 1013,3 hPa 0,0 l/m 0,4 km/h (0 Bft) E 0,00 h 0,025 mm 5 W/m 15,2 C 18,4 C 0,7 km/h (0 Bft)
07/06/2007 22:00 17,7 C 85 % 1013,8 hPa 0,0 l/m 0,8 km/h (0 Bft) NE 0,00 h 0,000 mm 0 W/m 15,1 C 17,7 C 1,8 km/h (1 Bft)
07/06/2007 23:00 17,3 C 86 % 1013,7 hPa 0,0 l/m 6,4 km/h (2 Bft) O-NO 0,00 h 0,025 mm 0 W/m 14,9 C 17,3 C 8,9 km/h (2 Bft)
08/06/2007 00:00 16,9 C 87 % 1013,7 hPa 0,0 l/m 0,2 km/h (0 Bft) NO 0,00 h 0,025 mm 0 W/m 14,6 C 16,9 C 1,0 km/h (0 Bft)
08/06/2007 01:00 16,9 C 86 % 1013,6 hPa 0,0 l/m 2,5 km/h (1 Bft) O-NO 0,00 h 0,025 mm 0 W/m 14,5 C 16,9 C 4,3 km/h (1 Bft)
08/06/2007 02:00 16,7 C 83 % 1013,7 hPa 0,0 l/m 2,7 km/h (1 Bft) O-NO 0,00 h 0,025 mm 0 W/m 13,8 C 16,7 C 5,2 km/h (1 Bft)
08/06/2007 03:00 16,6 C 82 % 1013,4 hPa 0,0 l/m 4,9 km/h (1 Bft) O-NO 0,00 h 0,025 mm 0 W/m 13,5 C 16,6 C 7,3 km/h (2 Bft)
08/06/2007 04:00 16,6 C 81 % 1013,4 hPa 0,0 l/m 2,5 km/h (1 Bft) NO 0,00 h 0,025 mm 0 W/m 13,3 C 16,6 C 4,5 km/h (1 Bft)
08/06/2007 05:00 16,4 C 81 % 1013,2 hPa 0,0 l/m 4,0 km/h (1 Bft) NO 0,00 h 0,025 mm 6 W/m 13,0 C 16,4 C 6,5 km/h (2 Bft)
08/06/2007 06:00 16,3 C 81 % 1013,5 hPa 0,0 l/m 2,6 km/h (1 Bft) NO 0,02 h 0,025 mm 20 W/m 13,1 C 16,3 C 4,6 km/h (1 Bft)
08/06/2007 07:00 17,8 C 77 % 1013,8 hPa 0,0 l/m 0,2 km/h (0 Bft) NO 0,52 h 0,025 mm 139 W/m 13,8 C 17,8 C 1,3 km/h (1 Bft)
08/06/2007 08:00 20,6 C 68 % 1013,8 hPa 0,0 l/m 0,3 km/h (0 Bft) O-SO 1,00 h 0,076 mm 355 W/m 14,5 C 20,6 C 1,7 km/h (1 Bft)
08/06/2007 09:00 22,7 C 64 % 1014,1 hPa 0,0 l/m 3,6 km/h (1 Bft) E-NE 1,00 h 0,203 mm 522 W/m 15,5 C 22,7 C 5,9 km/h (2 Bft)
08/06/2007 10:00 24,2 C 59 % 1014,1 hPa 0,0 l/m 5,3 km/h (1 Bft) E 1,00 h 0,330 mm 667 W/m 15,7 C 24,2 C 9,1 km/h (2 Bft)
08/06/2007 11:00 25,2 C 55 % 1014,2 hPa 0,0 l/m 7,6 km/h (2 Bft) E 1,00 h 0,457 mm 784 W/m 15,5 C 25,2 C 12,6 km/h (3 Bft)
08/06/2007 12:00 25,6 C 58 % 1014,4 hPa 0,0 l/m 12,2 km/h (2 Bft) E 1,00 h 0,559 mm 856 W/m 16,6 C 25,6 C 17,4 km/h (3 Bft)
08/06/2007 13:00 24,9 C 63 % 1014,7 hPa 0,0 l/m 10,9 km/h (2 Bft) E 1,00 h 0,635 mm 882 W/m 17,3 C 24,9 C 15,5 km/h (3 Bft)
08/06/2007 14:00 25,3 C 64 % 1014,8 hPa 0,0 l/m 11,7 km/h (2 Bft) E 1,00 h 0,610 mm 858 W/m 17,9 C 25,3 C 16,3 km/h (3 Bft)
08/06/2007 15:00 25,3 C 65 % 1014,9 hPa 0,0 l/m 10,5 km/h (2 Bft) E 1,00 h 0,610 mm 786 W/m 18,2 C 25,3 C 15,3 km/h (3 Bft)
08/06/2007 16:00 23,9 C 71 % 1014,9 hPa 0,0 l/m 6,8 km/h (2 Bft) E 0,35 h 0,559 mm 356 W/m 18,2 C 23,9 C 10,3 km/h (2 Bft)
08/06/2007 17:00 22,5 C 74 % 1015,0 hPa 0,0 l/m 3,4 km/h (1 Bft) E 0,32 h 0,254 mm 268 W/m 17,7 C 22,5 C 5,8 km/h (2 Bft)
08/06/2007 18:00 22,4 C 73 % 1014,8 hPa 0,0 l/m 0,5 km/h (0 Bft) E 0,00 h 0,178 mm 122 W/m 17,2 C 22,4 C 1,9 km/h (1 Bft)
08/06/2007 19:00 22,2 C 74 % 1014,6 hPa 0,0 l/m 0,4 km/h (0 Bft) S 0,05 h 0,076 mm 66 W/m 17,4 C 22,2 C 1,1 km/h (0 Bft)
08/06/2007 20:00 21,6 C 79 % 1014,5 hPa 0,0 l/m 0,1 km/h (0 Bft) NE 0,23 h 0,051 mm 36 W/m 17,8 C 21,6 C 0,5 km/h (0 Bft)
08/06/2007 21:00 20,8 C 83 % 1014,2 hPa 0,0 l/m 0,4 km/h (0 Bft) NE 0,02 h 0,025 mm 8 W/m 17,7 C 20,8 C 1,1 km/h (1 Bft)
08/06/2007 22:00 20,5 C 83 % 1014,8 hPa 0,0 l/m 0,7 km/h (0 Bft) NO 0,00 h 0,000 mm 0 W/m 17,5 C 20,5 C 1,3 km/h (1 Bft)
08/06/2007 23:00 20,3 C 83 % 1015,0 hPa 0,0 l/m 1,6 km/h (1 Bft) O-NO 0,00 h 0,025 mm 0 W/m 17,3 C 20,3 C 3,1 km/h (1 Bft)
09/06/2007 00:00 20,4 C 82 % 1014,9 hPa 0,0 l/m 0,6 km/h (0 Bft) O-NO 0,00 h 0,025 mm 0 W/m 17,2 C 20,4 C 1,9 km/h (1 Bft)
09/06/2007 01:00 19,8 C 85 % 1015,2 hPa 0,0 l/m 0,1 km/h (0 Bft) NO 0,00 h 0,025 mm 0 W/m 17,2 C 19,8 C 0,6 km/h (0 Bft)
09/06/2007 02:00 20,3 C 80 % 1015,0 hPa 0,0 l/m 0,8 km/h (0 Bft) NO 0,00 h 0,025 mm 0 W/m 16,8 C 20,3 C 2,5 km/h (1 Bft)
09/06/2007 03:00 20,3 C 79 % 1014,8 hPa 0,0 l/m 3,6 km/h (1 Bft) O-NO 0,00 h 0,025 mm 0 W/m 16,6 C 20,3 C 5,4 km/h (1 Bft)
09/06/2007 04:00 20,3 C 77 % 1014,8 hPa 0,0 l/m 2,5 km/h (1 Bft) O 0,00 h 0,025 mm 0 W/m 16,2 C 20,3 C 3,6 km/h (1 Bft)
09/06/2007 05:00 19,6 C 79 % 1014,8 hPa 0,0 l/m 2,5 km/h (1 Bft) O-NO 0,00 h 0,025 mm 7 W/m 16,0 C 19,6 C 4,3 km/h (1 Bft)
09/06/2007 06:00 19,4 C 81 % 1014,8 hPa 0,0 l/m 1,5 km/h (1 Bft) O-NO 0,05 h 0,025 mm 34 W/m 16,0 C 19,4 C 3,3 km/h (1 Bft)
09/06/2007 07:00 20,9 C 76 % 1014,9 hPa 0,0 l/m 0,5 km/h (0 Bft) N-NO 0,50 h 0,025 mm 141 W/m 16,5 C 20,9 C 1,4 km/h (1 Bft)
09/06/2007 08:00 23,5 C 66 % 1014,9 hPa 0,0 l/m 1,0 km/h (0 Bft) N-NE 0,78 h 0,076 mm 289 W/m 16,7 C 23,5 C 2,5 km/h (1 Bft)
09/06/2007 09:00 24,4 C 63 % 1015,0 hPa 0,0 l/m 1,4 km/h (1 Bft) E 0,20 h 0,178 mm 283 W/m 16,9 C 24,4 C 3,2 km/h (1 Bft)
09/06/2007 10:00 24,4 C 65 % 1015,1 hPa 0,0 l/m 6,0 km/h (2 Bft) E 1,00 h 0,203 mm 588 W/m 17,5 C 24,4 C 8,7 km/h (2 Bft)
09/06/2007 11:00 25,8 C 61 % 1015,2 hPa 0,0 l/m 10,0 km/h (2 Bft) E 1,00 h 0,406 mm 775 W/m 17,6 C 25,8 C 14,3 km/h (3 Bft)
09/06/2007 12:00 25,7 C 59 % 1015,6 hPa 0,0 l/m 9,8 km/h (2 Bft) E 1,00 h 0,559 mm 840 W/m 17,0 C 25,7 C 14,4 km/h (3 Bft)
09/06/2007 13:00 26,3 C 57 % 1015,2 hPa 0,0 l/m 9,0 km/h (2 Bft) E 1,00 h 0,610 mm 875 W/m 17,0 C 26,3 C 14,2 km/h (3 Bft)
09/06/2007 14:00 25,2 C 67 % 1015,1 hPa 0,0 l/m 8,6 km/h (2 Bft) E 0,20 h 0,635 mm 429 W/m 18,5 C 25,2 C 12,4 km/h (3 Bft)
09/06/2007 15:00 23,1 C 77 % 1015,1 hPa 0,0 l/m 6,4 km/h (2 Bft) E 0,00 h 0,330 mm 269 W/m 18,8 C 23,1 C 9,4 km/h (2 Bft)
09/06/2007 16:00 24,5 C 69 % 1015,1 hPa 0,0 l/m 3,8 km/h (1 Bft) S-SE 0,68 h 0,203 mm 523 W/m 18,3 C 24,5 C 6,4 km/h (2 Bft)
09/06/2007 17:00 23,7 C 70 % 1014,7 hPa 0,0 l/m 2,5 km/h (1 Bft) S-SE 0,00 h 0,330 mm 120 W/m 17,8 C 23,7 C 5,1 km/h (1 Bft)
09/06/2007 18:00 23,1 C 74 % 1014,7 hPa 0,0 l/m 0,9 km/h (0 Bft) NE 0,00 h 0,102 mm 106 W/m 18,1 C 23,1 C 2,3 km/h (1 Bft)
09/06/2007 19:00 23,0 C 73 % 1013,9 hPa 0,0 l/m 0,6 km/h (0 Bft) S-SE 0,28 h 0,076 mm 132 W/m 18,0 C 23,0 C 1,5 km/h (1 Bft)
09/06/2007 20:00 22,9 C 72 % 1013,8 hPa 0,0 l/m 0,7 km/h (0 Bft) E-NE 0,20 h 0,076 mm 49 W/m 17,7 C 22,9 C 2,2 km/h (1 Bft)
09/06/2007 21:00 21,3 C 78 % 1013,7 hPa 0,0 l/m 0,8 km/h (0 Bft) S-SE 0,00 h 0,051 mm 5 W/m 17,3 C 21,3 C 1,6 km/h (1 Bft)
09/06/2007 22:00 20,6 C 81 % 1013,9 hPa 0,0 l/m 1,4 km/h (1 Bft) S-SE 0,00 h 0,000 mm 0 W/m 17,1 C 20,6 C 2,9 km/h (1 Bft)
09/06/2007 23:00 20,2 C 85 % 1014,1 hPa 0,0 l/m 1,6 km/h (1 Bft) O-NO 0,00 h 0,025 mm 0 W/m 17,5 C 20,2 C 3,9 km/h (1 Bft)
10/06/2007 00:00 20,0 C 85 % 1014,0 hPa 0,0 l/m 1,7 km/h (1 Bft) O-NO 0,00 h 0,025 mm 0 W/m 17,4 C 20,0 C 3,7 km/h (1 Bft)
10/06/2007 01:00 19,4 C 86 % 1014,3 hPa 0,0 l/m 1,1 km/h (1 Bft) NO 0,00 h 0,025 mm 0 W/m 17,0 C 19,4 C 2,3 km/h (1 Bft)
10/06/2007 02:00 19,3 C 84 % 1014,1 hPa 0,0 l/m 3,0 km/h (1 Bft) NO 0,00 h 0,025 mm 0 W/m 16,5 C 19,3 C 5,0 km/h (1 Bft)
10/06/2007 03:00 19,5 C 82 % 1014,0 hPa 0,0 l/m 0,4 km/h (0 Bft) NO 0,00 h 0,025 mm 0 W/m 16,4 C 19,5 C 1,1 km/h (1 Bft)
10/06/2007 04:00 19,4 C 83 % 1013,6 hPa 0,0 l/m 1,0 km/h (0 Bft) NO 0,00 h 0,025 mm 0 W/m 16,3 C 19,4 C 2,1 km/h (1 Bft)
10/06/2007 05:00 18,8 C 83 % 1013,6 hPa 0,0 l/m 0,5 km/h (0 Bft) NO 0,00 h 0,025 mm 6 W/m 15,9 C 18,8 C 1,2 km/h (1 Bft)
10/06/2007 06:00 18,6 C 87 % 1013,8 hPa 0,0 l/m 2,3 km/h (1 Bft) SO 0,05 h 0,000 mm 30 W/m 16,3 C 18,6 C 3,9 km/h (1 Bft)
10/06/2007 07:00 19,7 C 82 % 1013,7 hPa 0,0 l/m 0,6 km/h (0 Bft) O 0,52 h 0,025 mm 138 W/m 16,6 C 19,7 C 2,0 km/h (1 Bft)
10/06/2007 08:00 22,5 C 74 % 1013,7 hPa 0,0 l/m 1,0 km/h (0 Bft) SO 1,00 h 0,076 mm 316 W/m 17,6 C 22,5 C 2,7 km/h (1 Bft)
10/06/2007 09:00 24,3 C 68 % 1013,8 hPa 0,0 l/m 4,9 km/h (1 Bft) E 1,00 h 0,203 mm 488 W/m 18,1 C 24,3 C 7,8 km/h (2 Bft)
10/06/2007 10:00 24,8 C 68 % 1014,0 hPa 0,0 l/m 8,8 km/h (2 Bft) E 1,00 h 0,330 mm 649 W/m 18,4 C 24,8 C 13,1 km/h (3 Bft)
10/06/2007 11:00 25,3 C 68 % 1014,1 hPa 0,0 l/m 9,6 km/h (2 Bft) E 1,00 h 0,457 mm 716 W/m 19,0 C 25,3 C 14,3 km/h (3 Bft)
10/06/2007 12:00 25,4 C 65 % 1014,3 hPa 0,0 l/m 10,4 km/h (2 Bft) E 1,00 h 0,508 mm 796 W/m 18,5 C 25,4 C 14,8 km/h (3 Bft)
10/06/2007 13:00 25,3 C 65 % 1014,3 hPa 0,0 l/m 10,1 km/h (2 Bft) E 1,00 h 0,559 mm 817 W/m 18,2 C 25,3 C 15,1 km/h (3 Bft)
10/06/2007 14:00 25,4 C 65 % 1014,0 hPa 0,0 l/m 10,8 km/h (2 Bft) E 1,00 h 0,559 mm 725 W/m 18,3 C 25,4 C 15,0 km/h (3 Bft)
10/06/2007 15:00 25,1 C 69 % 1013,7 hPa 0,0 l/m 9,4 km/h (2 Bft) E 0,95 h 0,508 mm 681 W/m 19,1 C 25,1 C 13,8 km/h (3 Bft)
10/06/2007 16:00 26,0 C 64 % 1013,7 hPa 0,0 l/m 8,0 km/h (2 Bft) E 1,00 h 0,483 mm 650 W/m 18,7 C 26,0 C 11,8 km/h (2 Bft)
10/06/2007 17:00 26,2 C 62 % 1013,7 hPa 0,0 l/m 7,6 km/h (2 Bft) E 0,93 h 0,457 mm 531 W/m 18,3 C 26,2 C 11,6 km/h (2 Bft)
10/06/2007 18:00 24,1 C 67 % 1013,1 hPa 0,0 l/m 4,6 km/h (1 Bft) E 0,43 h 0,381 mm 220 W/m 17,6 C 24,1 C 7,1 km/h (2 Bft)
10/06/2007 19:00 23,2 C 68 % 1012,8 hPa 0,0 l/m 1,0 km/h (0 Bft) E 0,72 h 0,152 mm 157 W/m 16,9 C 23,2 C 2,5 km/h (1 Bft)
10/06/2007 20:00 22,3 C 70 % 1012,5 hPa 0,0 l/m 1,3 km/h (1 Bft) S-SE 0,00 h 0,102 mm 35 W/m 16,6 C 22,3 C 2,5 km/h (1 Bft)
10/06/2007 21:00 20,9 C 75 % 1012,0 hPa 0,0 l/m 0,9 km/h (0 Bft) S-SE 0,00 h 0,025 mm 6 W/m 16,4 C 20,9 C 1,5 km/h (1 Bft)
10/06/2007 22:00 20,0 C 79 % 1012,2 hPa 0,0 l/m 1,1 km/h (1 Bft) O-NO 0,00 h 0,000 mm 0 W/m 16,3 C 20,0 C 2,0 km/h (1 Bft)
10/06/2007 23:00 19,5 C 82 % 1012,2 hPa 0,0 l/m 3,3 km/h (1 Bft) O-NO 0,00 h 0,025 mm 0 W/m 16,4 C 19,5 C 5,5 km/h (1 Bft)
Min-Date _ 07/06/07 04/06/07 06/06/07 - 04/06/07 - - - - 04/06/07 07/06/07 04/06/07
_ Min-Heure 05:25 19:36 16:30 - 01:28 - - - - 04:13 05:25 01:29
Minimum _ 15,2 C 42 % 1008,7 hPa - 0,0 km/h (0 Bft) - - - - 9,6 C 15,2 C 0,0 km/h (0 Bft)
Max-Date _ 10/06/07 07/06/07 09/06/07 06/06/07 06/06/07 - 07/06/07 04/06/07 07/06/07 10/06/07 10/06/07 06/06/07
_ Max-Heure 17:10 02:14 12:15 18:12 13:52 - 13:41 14:00 12:21 16:09 17:10 15:05
Maximum _ 27,2 C 95 % 1015,6 hPa 4,2 l/m 19,3 km/h
E (3 Bft)
- 0,03 h 0,660 mm 1243 W/m 19,8 C 27,2 C 25,7 km/h
S (4 Bft)
Moyenne _ 20,9 C 73 % 1012,7 hPa #10,0 l/m 4,2 km/h (1 Bft) E #58:18 h #32,105 mm 381 W/m 15,5 C 20,9 C 6,8 km/h (2 Bft)
Roquefort les pins